Bookmark and Share
Track history (hours):
 

Yue Zhu Hai 4038

Last reported at 2014-Apr-18 07:12 UTC. Time now 2014-Apr-24 09:33 UTC.
Position N 22°06' E 113°51'.

Length 21 m.

Type: Fishing. MMSI: 412478675.

NotesDate/timePositionNaut miles runAvg speedWind from/ knotsBaromVisibWave heightAir tempDewpointWater temp
2014-Apr-18 07:12N 22°06' E 113°51'710.8
2014-Apr-18 06:33N 22°10' E 113°45'1110.6
2014-Apr-18 05:32N 22°17' E 113°36'5 4.3
2014-Apr-18 04:27N 22°14' E 113°40'9 9.9
2014-Apr-18 03:33N 22°08' E 113°47'4 1.7
2014-Apr-18 01:24N 22°06' E 113°50'8 8.9
2014-Apr-18 00:33N 22°11' E 113°44'10 8.7
2014-Apr-17 23:26N 22°17' E 113°36'1 0.1
2014-Apr-17 03:31N 22°17' E 113°35'0 0.0
2014-Apr-17 02:25N 22°17' E 113°35'0 0.0
2014-Apr-17 01:19N 22°17' E 113°35'2 3.1
2014-Apr-17 00:31N 22°16' E 113°37'1010.6
2014-Apr-16 23:33N 22°10' E 113°46'7 5.8
2014-Apr-16 22:19N 22°06' E 113°52'5 6.0
2014-Apr-16 21:33N 22°04' E 113°48'1312.4
2014-Apr-16 20:31N 22°14' E 113°40'4 0.2
2014-Apr-16 05:29N 22°17' E 113°37'8 8.7
2014-Apr-16 04:33N 22°12' E 113°43'7 3.7
2014-Apr-16 02:32N 22°07' E 113°50'10 9.3
2014-Apr-16 01:25N 22°13' E 113°41'  
2014-Apr-13 14:30N 22°16' E 113°38'9 9.2
2014-Apr-13 13:33N 22°11' E 113°45'6 6.2
2014-Apr-13 12:30N 22°06' E 113°50'17 8.7
2014-Apr-13 10:32N 22°17' E 113°36'  
2014-Apr-11 05:33N 22°17' E 113°36'9 9.0
2014-Apr-11 04:33N 22°11' E 113°44'4 1.4
2014-Apr-11 01:33N 22°08' E 113°47'14 9.6
2014-Apr-11 00:08N 22°17' E 113°36'  

Dump ship's entire track history

sailing weather and tide predictions

Yue Zhu Hai 4038 — 4038 — position and weather